Time;durP1;ratioP1;P1;durP2;ratioP2;P2;SDS_P1;SDS_P2;PMS_P1;PMS_P2;Temp;Humidity;BMP_temperature;BMP_pressure;BME280_temperature;BME280_humidity;BME280_pressure;Samples;Min_cycle;Max_cycle;Signal;HPM_P1;HPM_P2
2023/11/20 00:01:26;;;;;;;6.72;2.03;;;;;;;9.64;66.15;98445.16;4992748;28;104971;-66
2023/11/20 00:03:55;;;;;;;10.25;2.42;;;;;;;9.41;66.68;98440.59;5007433;28;103294;-65
2023/11/20 00:06:23;;;;;;;5.63;2.38;;;;;;;9.53;66.35;98441.06;5014728;28;106671;-66
2023/11/20 00:08:51;;;;;;;9.63;2.80;;;;;;;9.51;66.35;98443.06;5007101;28;103600;-67
2023/11/20 00:11:20;;;;;;;7.57;2.65;;;;;;;9.51;66.56;98447.50;5007218;28;104697;-65
2023/11/20 00:13:48;;;;;;;10.80;2.92;;;;;;;9.50;66.82;98446.69;4989747;28;103631;-66
2023/11/20 00:16:16;;;;;;;14.68;3.08;;;;;;;9.43;66.52;98443.91;5010607;28;104357;-65
2023/11/20 00:18:44;;;;;;;11.02;2.90;;;;;;;9.43;66.79;98457.13;5012835;28;102688;-66
2023/11/20 00:21:12;;;;;;;10.50;2.85;;;;;;;9.38;66.23;98450.66;5014333;28;103255;-65
2023/11/20 00:23:40;;;;;;;10.32;3.63;;;;;;;9.40;66.23;98457.44;5000421;28;103313;-65
2023/11/20 00:26:11;;;;;;;8.70;2.40;;;;;;;9.43;66.37;98451.00;5010143;28;102653;-66
2023/11/20 00:28:45;;;;;;;9.57;3.03;;;;;;;9.32;67.04;98446.88;5012870;28;102717;-66
2023/11/20 00:31:14;;;;;;;8.45;3.17;;;;;;;9.32;66.96;98457.44;4991369;28;104470;-67
2023/11/20 00:33:43;;;;;;;4.80;2.13;;;;;;;9.38;66.67;98458.59;5008179;28;103019;-67
2023/11/20 00:36:11;;;;;;;6.38;3.10;;;;;;;9.33;66.79;98459.09;4994763;28;102766;-66
2023/11/20 00:38:41;;;;;;;14.05;4.32;;;;;;;9.29;66.18;98457.78;4990836;28;102799;-67
2023/11/20 00:41:10;;;;;;;5.30;2.33;;;;;;;9.28;66.93;98459.59;4992989;28;103500;-67
2023/11/20 00:43:39;;;;;;;11.55;3.47;;;;;;;9.30;66.20;98462.06;4996919;28;103197;-65
2023/11/20 00:46:08;;;;;;;12.93;3.88;;;;;;;9.32;66.47;98459.28;5015379;28;102624;-67
2023/11/20 00:48:36;;;;;;;12.85;3.20;;;;;;;9.29;65.60;98458.59;5005711;28;103795;-65
2023/11/20 00:51:05;;;;;;;7.43;2.78;;;;;;;9.40;65.70;98453.97;5009894;28;103425;-65
2023/11/20 00:53:33;;;;;;;7.68;2.90;;;;;;;9.39;65.76;98461.09;4990099;28;103277;-66
2023/11/20 00:56:03;;;;;;;8.43;3.42;;;;;;;9.37;65.93;98452.50;4991776;28;102737;-66
2023/11/20 00:58:31;;;;;;;8.85;2.47;;;;;;;9.36;65.94;98456.13;4997500;28;103926;-66
2023/11/20 01:01:00;;;;;;;15.52;3.42;;;;;;;9.33;65.81;98455.63;4989946;28;104538;-66
2023/11/20 01:03:31;;;;;;;6.40;2.05;;;;;;;9.29;66.14;98457.78;4984559;28;103358;-66
2023/11/20 01:06:03;;;;;;;10.32;2.90;;;;;;;9.30;66.50;98462.06;5010809;28;102666;-66
2023/11/20 01:08:31;;;;;;;5.57;2.42;;;;;;;9.25;66.35;98462.56;4989867;28;103435;-66
2023/11/20 01:10:59;;;;;;;5.38;2.53;;;;;;;9.22;66.13;98464.72;4999674;28;104405;-66
2023/11/20 01:13:27;;;;;;;7.05;2.60;;;;;;;9.18;66.68;98460.75;4987196;28;104588;-66
2023/11/20 01:15:55;;;;;;;5.22;2.03;;;;;;;9.15;67.35;98463.75;5015204;28;102791;-66
2023/11/20 01:18:23;;;;;;;10.32;2.53;;;;;;;9.10;67.42;98464.22;4993293;28;102936;-66
2023/11/20 01:20:54;;;;;;;9.07;3.17;;;;;;;9.04;67.41;98463.06;5010155;28;104191;-66
2023/11/20 01:23:22;;;;;;;6.65;2.35;;;;;;;9.04;67.51;98464.88;5013241;28;104789;-66
2023/11/20 01:25:50;;;;;;;6.45;2.22;;;;;;;9.02;67.79;98465.03;5009601;28;102902;-66
2023/11/20 01:28:19;;;;;;;9.10;2.65;;;;;;;9.04;67.90;98457.78;5011196;28;103023;-66
2023/11/20 01:30:47;;;;;;;7.55;2.72;;;;;;;9.11;67.65;98461.41;4997003;28;103524;-67
2023/11/20 01:33:16;;;;;;;8.65;2.72;;;;;;;9.13;67.79;98462.09;5013793;28;103293;-66
2023/11/20 01:35:47;;;;;;;6.65;2.28;;;;;;;9.15;67.97;98471.66;4996566;28;102759;-67
2023/11/20 01:38:17;;;;;;;5.10;1.75;;;;;;;9.15;67.93;98469.84;5008949;28;102936;-66
2023/11/20 01:40:45;;;;;;;9.02;3.17;;;;;;;9.16;68.45;98465.38;4997535;28;103472;-66
2023/11/20 01:43:13;;;;;;;9.93;3.00;;;;;;;9.16;68.64;98466.22;4998312;28;103353;-66
2023/11/20 01:45:41;;;;;;;6.65;2.22;;;;;;;9.18;68.91;98463.41;5010515;28;102840;-66
2023/11/20 01:48:09;;;;;;;9.75;3.28;;;;;;;9.19;68.79;98462.41;5005146;28;102701;-66
2023/11/20 01:50:37;;;;;;;5.85;2.40;;;;;;;9.23;68.64;98461.09;5003938;28;104134;-67
2023/11/20 01:53:06;;;;;;;5.72;2.35;;;;;;;9.25;68.87;98453.84;4990621;28;103469;-65
2023/11/20 01:55:39;;;;;;;8.68;2.13;;;;;;;9.28;68.72;98454.31;5001896;28;102907;-65
2023/11/20 01:58:09;;;;;;;8.45;3.30;;;;;;;9.35;68.30;98464.22;5012929;28;102760;-65
2023/11/20 02:00:37;;;;;;;14.32;3.08;;;;;;;9.37;68.53;98456.97;4992345;28;104512;-65
2023/11/20 02:03:06;;;;;;;10.30;3.00;;;;;;;9.42;68.20;98460.75;5006919;28;103186;-65
2023/11/20 02:05:35;;;;;;;5.75;2.10;;;;;;;9.46;68.10;98456.78;5010419;28;102783;-65
2023/11/20 02:08:03;;;;;;;10.10;3.38;;;;;;;9.50;67.81;98448.50;5007104;28;102828;-65
2023/11/20 02:10:30;;;;;;;10.40;3.13;;;;;;;9.52;68.10;98439.41;4990650;28;103432;-65
2023/11/20 02:13:00;;;;;;;7.88;3.17;;;;;;;9.53;68.46;98448.19;5016249;28;103297;-65
2023/11/20 02:15:28;;;;;;;14.77;2.80;;;;;;;9.54;67.96;98449.84;5011824;28;102957;-66
2023/11/20 02:17:56;;;;;;;11.00;2.95;;;;;;;9.57;68.19;98450.31;4992021;28;102776;-65
2023/11/20 02:20:27;;;;;;;7.20;3.45;;;;;;;9.58;67.35;98441.41;4991635;28;104163;-67
2023/11/20 02:22:55;;;;;;;12.40;2.70;;;;;;;9.63;67.25;98440.91;4990977;28;104206;-65
2023/11/20 02:25:23;;;;;;;12.10;4.18;;;;;;;9.66;67.43;98437.91;4986307;28;102619;-65
2023/11/20 02:27:57;;;;;;;8.00;2.55;;;;;;;9.68;67.50;98438.59;5006195;28;102737;-65
2023/11/20 02:30:28;;;;;;;10.40;3.55;;;;;;;9.69;67.40;98429.63;5011197;28;103358;-65
2023/11/20 02:32:56;;;;;;;7.10;2.60;;;;;;;9.67;67.61;98429.00;5007646;28;102980;-66
2023/11/20 02:35:24;;;;;;;9.27;2.60;;;;;;;9.68;67.80;98438.59;4991167;28;103087;-66
2023/11/20 02:37:53;;;;;;;9.95;2.90;;;;;;;9.71;67.57;98427.66;4987518;28;102877;-66
2023/11/20 02:40:22;;;;;;;6.65;2.58;;;;;;;9.73;67.70;98430.13;4997924;28;104154;-65
2023/11/20 02:42:49;;;;;;;11.35;3.13;;;;;;;9.74;67.61;98437.88;4988547;28;103419;-65
2023/11/20 02:45:18;;;;;;;7.30;2.60;;;;;;;9.71;67.76;98427.66;5010075;28;103143;-65
2023/11/20 02:47:47;;;;;;;4.95;2.45;;;;;;;9.71;67.57;98437.41;4989690;28;102868;-65
2023/11/20 02:50:15;;;;;;;9.80;2.25;;;;;;;9.71;67.63;98435.59;4996319;28;103438;-65
2023/11/20 02:52:43;;;;;;;8.77;2.83;;;;;;;9.77;67.51;98437.56;5008302;28;103280;-66
2023/11/20 02:55:11;;;;;;;9.90;2.65;;;;;;;9.77;67.79;98442.84;5006925;28;102692;-66
2023/11/20 02:57:39;;;;;;;9.65;2.90;;;;;;;9.76;68.32;98437.72;5011798;28;102767;-66
2023/11/20 03:00:11;;;;;;;12.65;3.30;;;;;;;9.78;68.07;98438.38;4993212;28;103358;-66
2023/11/20 03:02:40;;;;;;;7.78;2.63;;;;;;;9.78;68.25;98428.59;5004754;28;103274;-66
2023/11/20 03:05:09;;;;;;;10.98;2.65;;;;;;;9.81;68.31;98431.94;4991163;28;102701;-65
2023/11/20 03:07:37;;;;;;;10.70;3.00;;;;;;;9.79;68.43;98432.09;4995562;28;103927;-66
2023/11/20 03:10:08;;;;;;;14.20;3.58;;;;;;;9.78;68.48;98428.59;4984969;28;104382;-66
2023/11/20 03:12:37;;;;;;;9.30;3.25;;;;;;;9.81;68.50;98426.63;5007525;28;103276;-65
2023/11/20 03:15:07;;;;;;;6.88;2.53;;;;;;;9.79;68.87;98424.97;4993598;28;102674;-66
2023/11/20 03:17:35;;;;;;;7.82;2.80;;;;;;;9.79;68.93;98417.03;4995403;28;104292;-66
2023/11/20 03:20:04;;;;;;;5.25;1.90;;;;;;;9.76;69.36;98420.03;4989403;28;103329;-66
2023/11/20 03:22:33;;;;;;;9.18;3.20;;;;;;;9.81;69.32;98421.34;5000648;28;103924;-66
2023/11/20 03:25:01;;;;;;;7.50;2.92;;;;;;;9.79;69.47;98411.75;4993450;28;102654;-66
2023/11/20 03:27:29;;;;;;;4.97;2.08;;;;;;;9.81;69.53;98413.41;5005039;28;103950;-66
2023/11/20 03:29:57;;;;;;;3.35;1.80;;;;;;;9.84;69.28;98410.41;5005657;28;103421;-66
2023/11/20 03:32:25;;;;;;;7.55;2.30;;;;;;;9.79;69.50;98401.19;5007084;28;103394;-67
2023/11/20 03:34:55;;;;;;;6.35;2.50;;;;;;;9.79;69.50;98403.81;5006866;28;102504;-67
2023/11/20 03:37:23;;;;;;;12.60;3.38;;;;;;;9.87;69.52;98402.16;5001855;28;102964;-65
2023/11/20 03:39:52;;;;;;;5.97;2.10;;;;;;;9.86;69.25;98397.84;5008112;28;103811;-66
2023/11/20 03:42:20;;;;;;;7.32;2.20;;;;;;;9.88;69.27;98401.16;5006256;28;103178;-66
2023/11/20 03:44:48;;;;;;;8.50;2.40;;;;;;;9.90;69.12;98401.81;5001599;28;102742;-66
2023/11/20 03:47:18;;;;;;;14.68;3.25;;;;;;;9.91;69.39;98398.16;4989976;28;104114;-67
2023/11/20 03:49:46;;;;;;;8.68;3.28;;;;;;;9.94;69.27;98395.16;4984233;28;103433;-66
2023/11/20 03:52:14;;;;;;;5.25;2.38;;;;;;;9.95;69.18;98388.88;5013208;28;102974;-66
2023/11/20 03:54:43;;;;;;;6.50;2.50;;;;;;;9.93;69.45;98394.34;5001868;28;102716;-66
2023/11/20 03:57:12;;;;;;;8.52;3.47;;;;;;;9.97;69.25;98386.91;4990035;28;103027;-66
2023/11/20 03:59:40;;;;;;;7.05;2.38;;;;;;;9.95;69.14;98395.00;5001903;28;103242;-66
2023/11/20 04:02:08;;;;;;;6.68;2.75;;;;;;;9.95;69.49;98391.53;4993434;28;103443;-66
2023/11/20 04:04:36;;;;;;;5.72;1.90;;;;;;;9.96;69.55;98390.53;5002670;28;102586;-68
2023/11/20 04:07:04;;;;;;;5.10;2.10;;;;;;;9.98;69.21;98385.06;4999873;28;102904;-67
2023/11/20 04:09:32;;;;;;;10.05;2.90;;;;;;;10.00;69.40;98394.50;4980550;28;104493;-66
2023/11/20 04:12:00;;;;;;;9.45;3.88;;;;;;;9.99;69.47;98392.84;5000262;28;103381;-67
2023/11/20 04:14:29;;;;;;;6.55;2.60;;;;;;;9.96;69.59;98385.25;4989325;28;103136;-66
2023/11/20 04:16:58;;;;;;;10.10;3.10;;;;;;;9.96;69.63;98382.59;5003969;28;102994;-66
2023/11/20 04:19:26;;;;;;;6.93;2.58;;;;;;;9.96;69.87;98388.72;5003025;28;104364;-66
2023/11/20 04:21:54;;;;;;;11.68;2.45;;;;;;;9.97;69.85;98378.97;4992600;28;102991;-67
2023/11/20 04:24:23;;;;;;;8.85;2.65;;;;;;;9.97;69.85;98384.25;4988867;28;103047;-66
2023/11/20 04:26:51;;;;;;;11.80;3.80;;;;;;;9.96;69.42;98377.31;4988247;28;104312;-66
2023/11/20 04:29:19;;;;;;;7.85;2.50;;;;;;;9.96;69.20;98382.59;5005241;28;104066;-66
2023/11/20 04:31:48;;;;;;;4.28;1.70;;;;;;;10.01;68.86;98377.63;5000827;28;103914;-66
2023/11/20 04:34:19;;;;;;;8.75;2.75;;;;;;;10.01;68.70;98369.69;5003900;28;102604;-66
2023/11/20 04:36:47;;;;;;;8.13;2.80;;;;;;;10.05;68.67;98360.41;4988624;28;102763;-66
2023/11/20 04:39:15;;;;;;;14.07;3.17;;;;;;;10.04;68.26;98366.69;5002355;28;103882;-66
2023/11/20 04:41:43;;;;;;;7.07;2.20;;;;;;;10.07;68.52;98358.44;5010310;28;104277;-66
2023/11/20 04:44:11;;;;;;;12.88;3.40;;;;;;;10.06;68.17;98359.41;5007399;28;102768;-65
2023/11/20 04:46:39;;;;;;;4.00;1.80;;;;;;;10.06;68.12;98375.28;5007741;28;102754;-66
2023/11/20 04:49:08;;;;;;;6.65;2.10;;;;;;;10.10;68.25;98371.28;5011702;28;103358;-66
2023/11/20 04:51:36;;;;;;;13.60;3.30;;;;;;;10.10;68.27;98371.28;5011321;28;103418;-66
2023/11/20 04:54:04;;;;;;;7.03;2.50;;;;;;;10.11;68.71;98369.47;4986866;28;102878;-66
2023/11/20 04:56:33;;;;;;;9.93;3.15;;;;;;;10.08;68.78;98369.81;5007876;28;102839;-66
2023/11/20 04:59:01;;;;;;;6.13;2.45;;;;;;;10.11;68.75;98365.00;4988349;28;103287;-66
2023/11/20 05:01:32;;;;;;;7.88;2.33;;;;;;;10.09;68.81;98367.00;5008899;28;104231;-66
2023/11/20 05:04:00;;;;;;;7.18;2.75;;;;;;;10.09;69.06;98361.69;5012206;28;102665;-66
2023/11/20 05:06:30;;;;;;;7.78;2.22;;;;;;;10.02;69.31;98367.84;5012154;28;104066;-66
2023/11/20 05:08:58;;;;;;;5.82;2.70;;;;;;;9.98;69.46;98370.00;5012014;28;104436;-65
2023/11/20 05:11:26;;;;;;;6.15;1.95;;;;;;;9.86;69.88;98359.00;5007313;28;103233;-65
2023/11/20 05:13:58;;;;;;;5.75;2.20;;;;;;;9.89;69.74;98365.75;5003988;28;104758;-65
2023/11/20 05:16:28;;;;;;;7.77;2.03;;;;;;;9.88;69.87;98372.06;5011065;28;102635;-68
2023/11/20 05:18:56;;;;;;;4.45;1.80;;;;;;;9.86;69.98;98369.56;5011104;28;104017;-65
2023/11/20 05:21:24;;;;;;;15.07;3.05;;;;;;;9.81;70.55;98368.44;5011185;28;103181;-65
2023/11/20 05:23:53;;;;;;;6.40;2.67;;;;;;;9.85;70.68;98369.75;5012129;28;102653;-65
2023/11/20 05:26:21;;;;;;;8.98;3.17;;;;;;;9.63;70.28;98362.38;5010855;28;102722;-65
2023/11/20 05:28:54;;;;;;;8.90;2.95;;;;;;;9.57;70.31;98357.78;5008769;28;103253;-66
2023/11/20 05:31:22;;;;;;;7.57;2.83;;;;;;;9.63;70.10;98362.38;4994736;28;103381;-66
2023/11/20 05:33:50;;;;;;;15.00;3.60;;;;;;;9.67;69.96;98368.16;5006100;28;102915;-65
2023/11/20 05:36:18;;;;;;;9.13;2.33;;;;;;;9.66;70.49;98382.38;5009517;28;102859;-65
2023/11/20 05:38:46;;;;;;;8.95;3.25;;;;;;;9.65;69.39;98380.72;4987150;28;103729;-66
2023/11/20 05:41:15;;;;;;;6.80;2.30;;;;;;;9.68;68.88;98388.34;4985803;28;103383;-66
2023/11/20 05:43:43;;;;;;;6.72;2.33;;;;;;;9.77;69.37;98392.59;4987014;28;102584;-65
2023/11/20 05:46:14;;;;;;;6.45;2.38;;;;;;;9.75;69.37;98405.16;4993030;28;102736;-66
2023/11/20 05:48:42;;;;;;;10.73;2.90;;;;;;;9.78;69.83;98399.53;4984505;28;104560;-66
2023/11/20 05:51:10;;;;;;;9.85;2.50;;;;;;;9.81;69.79;98389.59;5004969;28;103020;-66
2023/11/20 05:53:40;;;;;;;8.07;2.67;;;;;;;9.68;70.49;98388.34;4996619;28;102648;-66
2023/11/20 05:56:12;;;;;;;4.97;1.95;;;;;;;9.76;69.98;98376.88;5001176;28;102750;-65
2023/11/20 05:58:41;;;;;;;10.20;2.63;;;;;;;9.83;68.45;98377.88;5003667;28;103345;-66
2023/11/20 06:01:10;;;;;;;10.45;3.33;;;;;;;9.86;69.16;98381.97;5005796;28;103287;-65
2023/11/20 06:03:38;;;;;;;6.55;1.90;;;;;;;9.92;68.89;98376.81;5006723;28;103913;-66
2023/11/20 06:06:06;;;;;;;6.90;2.13;;;;;;;9.86;69.49;98385.44;5002666;28;103961;-65
2023/11/20 06:08:34;;;;;;;7.18;2.67;;;;;;;9.90;69.42;98373.56;5009785;28;103301;-65
2023/11/20 06:11:02;;;;;;;10.93;2.70;;;;;;;9.76;67.82;98372.44;5013147;28;103298;-66
2023/11/20 06:13:30;;;;;;;7.53;2.47;;;;;;;9.91;67.63;98374.38;5002118;28;102779;-65
2023/11/20 06:16:00;;;;;;;7.65;2.63;;;;;;;9.94;67.10;98380.13;5006205;28;102774;-65
2023/11/20 06:18:28;;;;;;;9.70;2.33;;;;;;;9.99;66.79;98379.59;5006257;28;103262;-67
2023/11/20 06:20:56;;;;;;;7.65;2.38;;;;;;;10.04;66.51;98395.78;5004453;28;103210;-66
2023/11/20 06:23:24;;;;;;;6.60;2.13;;;;;;;10.01;66.13;98393.50;5008423;28;102677;-67
2023/11/20 06:25:51;;;;;;;11.07;2.67;;;;;;;10.05;66.43;98396.63;5004916;28;104163;-67
2023/11/20 06:28:19;;;;;;;5.75;2.30;;;;;;;10.05;66.03;98389.50;5006509;28;103379;-66
2023/11/20 06:30:51;;;;;;;8.02;2.97;;;;;;;10.03;66.58;98393.31;5003993;28;103214;-66
2023/11/20 06:33:21;;;;;;;7.75;2.55;;;;;;;10.05;65.47;98404.56;5001709;28;102648;-67
2023/11/20 06:35:49;;;;;;;8.20;2.17;;;;;;;10.06;65.92;98399.09;5010890;28;103450;-67
2023/11/20 06:38:17;;;;;;;12.15;3.25;;;;;;;10.09;65.95;98397.94;4981206;28;104142;-67
2023/11/20 06:40:45;;;;;;;8.70;2.38;;;;;;;10.02;64.68;98397.81;5005495;28;103570;-67
2023/11/20 06:43:13;;;;;;;9.18;2.50;;;;;;;10.09;65.20;98401.41;5003782;28;102677;-67
2023/11/20 06:45:41;;;;;;;12.45;2.85;;;;;;;10.15;65.19;98407.00;4986590;28;102794;-67
2023/11/20 06:48:09;;;;;;;8.60;2.60;;;;;;;10.14;65.17;98411.47;5004018;28;103804;-67
2023/11/20 06:50:39;;;;;;;7.75;2.90;;;;;;;10.17;64.68;98408.47;4992643;28;103259;-67
2023/11/20 06:53:09;;;;;;;6.43;2.42;;;;;;;10.18;64.15;98409.28;5005615;28;103692;-67
2023/11/20 06:55:37;;;;;;;5.40;2.25;;;;;;;10.21;64.75;98406.31;5003669;28;103032;-67
2023/11/20 06:58:05;;;;;;;6.95;2.50;;;;;;;10.25;64.98;98407.63;4990804;28;103201;-67
2023/11/20 07:00:34;;;;;;;8.90;2.83;;;;;;;10.21;65.11;98411.59;4998231;28;103201;-66
2023/11/20 07:03:03;;;;;;;6.97;2.63;;;;;;;10.26;64.68;98409.28;5000561;28;102638;-67
2023/11/20 07:05:32;;;;;;;8.45;2.70;;;;;;;10.26;64.92;98409.28;5000316;28;102850;-67
2023/11/20 07:08:06;;;;;;;11.43;3.33;;;;;;;10.26;64.67;98398.69;5004965;28;103752;-67
2023/11/20 07:10:35;;;;;;;6.10;2.20;;;;;;;10.24;64.46;98403.31;5005259;28;103197;-67
2023/11/20 07:13:04;;;;;;;10.57;2.88;;;;;;;10.32;64.32;98411.19;5007451;28;102714;-67
2023/11/20 07:15:33;;;;;;;5.80;2.20;;;;;;;10.31;64.64;98412.22;5004899;28;102720;-67
2023/11/20 07:18:02;;;;;;;8.20;2.55;;;;;;;10.23;63.90;98409.59;5002457;28;103636;-67
2023/11/20 07:20:32;;;;;;;11.00;3.13;;;;;;;10.29;64.38;98403.63;4988275;28;104525;-67
2023/11/20 07:23:04;;;;;;;6.57;2.38;;;;;;;10.31;64.37;98409.56;5006756;28;102853;-67
2023/11/20 07:25:33;;;;;;;4.88;1.90;;;;;;;10.32;63.59;98415.69;5000513;28;102825;-67
2023/11/20 07:28:02;;;;;;;6.93;2.53;;;;;;;10.35;64.28;98408.25;4989711;28;103479;-67
2023/11/20 07:30:31;;;;;;;13.32;3.10;;;;;;;10.42;63.82;98403.91;5011206;28;103088;-67
2023/11/20 07:32:59;;;;;;;8.07;2.30;;;;;;;10.39;63.81;98408.75;5004474;28;102627;-66
2023/11/20 07:35:28;;;;;;;9.98;2.70;;;;;;;10.50;63.85;98402.22;5006544;28;102721;-67
2023/11/20 07:38:04;;;;;;;6.13;2.67;;;;;;;10.45;63.64;98403.56;4999322;28;103651;-66
2023/11/20 07:40:32;;;;;;;7.03;2.20;;;;;;;10.51;63.58;98390.63;5005263;28;103352;-66
2023/11/20 07:43:00;;;;;;;6.15;2.20;;;;;;;10.51;64.21;98398.56;5002127;28;102618;-66
2023/11/20 07:45:28;;;;;;;4.75;2.17;;;;;;;10.53;63.54;98405.34;5003569;28;102750;-66
2023/11/20 07:47:56;;;;;;;11.65;3.20;;;;;;;10.57;63.08;98401.34;4983102;28;103272;-65
2023/11/20 07:50:24;;;;;;;7.03;2.38;;;;;;;10.63;63.06;98393.72;5011063;28;103301;-65
2023/11/20 07:52:52;;;;;;;12.40;2.90;;;;;;;10.67;63.30;98395.00;4989369;28;102731;-67
2023/11/20 07:55:22;;;;;;;8.82;2.70;;;;;;;10.60;62.42;98381.63;5004520;28;103154;-67
2023/11/20 07:57:50;;;;;;;8.00;2.40;;;;;;;10.63;63.05;98388.41;5005626;28;103356;-60
2023/11/20 08:00:19;;;;;;;9.40;3.33;;;;;;;10.59;62.39;98391.38;4998506;28;103354;-69
2023/11/20 08:02:47;;;;;;;5.82;2.55;;;;;;;10.68;62.37;98392.16;5001919;28;103288;-68
2023/11/20 08:05:19;;;;;;;10.52;2.75;;;;;;;10.71;62.35;98398.94;5005349;28;103088;-68
2023/11/20 08:07:48;;;;;;;8.10;2.65;;;;;;;10.73;62.45;98396.91;5004027;28;103997;-68
2023/11/20 08:10:18;;;;;;;5.45;2.40;;;;;;;10.77;62.44;98385.81;4984643;28;103291;-65
2023/11/20 08:12:48;;;;;;;6.15;1.90;;;;;;;10.82;62.45;98384.44;5001091;28;102930;-65
2023/11/20 08:15:18;;;;;;;6.53;2.45;;;;;;;10.78;61.83;98392.75;5005639;28;102777;-65
2023/11/20 08:17:46;;;;;;;8.80;2.13;;;;;;;10.83;62.15;98389.56;5007726;28;103270;-65
2023/11/20 08:20:16;;;;;;;7.05;2.17;;;;;;;10.83;62.35;98388.75;5009860;27;103162;-65
2023/11/20 08:22:44;;;;;;;7.85;2.80;;;;;;;10.77;62.18;98387.63;4981002;28;102669;-65
2023/11/20 08:25:15;;;;;;;6.30;2.63;;;;;;;10.86;62.06;98383.94;5002668;28;103903;-65
2023/11/20 08:27:43;;;;;;;9.85;2.58;;;;;;;10.86;61.82;98385.72;4983556;28;104304;-65
2023/11/20 08:30:16;;;;;;;7.63;2.45;;;;;;;10.80;62.22;98384.63;5007620;28;103214;-65
2023/11/20 08:32:44;;;;;;;5.60;2.40;;;;;;;10.87;62.15;98375.00;5005125;28;102597;-65
2023/11/20 08:35:13;;;;;;;10.02;2.50;;;;;;;10.93;61.93;98378.75;5003352;28;103966;-65
2023/11/20 08:37:42;;;;;;;9.80;2.25;;;;;;;10.95;61.87;98382.00;5009730;28;103271;-70
2023/11/20 08:40:14;;;;;;;13.73;2.88;;;;;;;10.91;61.68;98386.88;5009267;28;103265;-68
2023/11/20 08:42:42;;;;;;;11.73;2.97;;;;;;;10.85;61.11;98392.06;5007575;28;102743;-67
2023/11/20 08:45:10;;;;;;;6.30;2.35;;;;;;;10.95;61.76;98384.66;4993582;28;102857;-67
2023/11/20 08:47:40;;;;;;;7.22;2.22;;;;;;;10.88;61.18;98386.41;4990232;28;102716;-66
2023/11/20 08:50:10;;;;;;;7.90;2.63;;;;;;;10.98;61.56;98384.31;5004863;28;103414;-65
2023/11/20 08:52:38;;;;;;;9.65;2.50;;;;;;;11.05;61.08;98377.28;5011248;28;102670;-66
2023/11/20 08:55:07;;;;;;;6.15;2.60;;;;;;;11.11;61.80;98381.88;5007771;28;103883;-67
2023/11/20 08:57:36;;;;;;;10.05;3.03;;;;;;;11.08;61.78;98382.25;5008733;28;103412;-69
2023/11/20 09:00:05;;;;;;;7.93;3.00;;;;;;;11.23;61.90;98378.81;4992405;28;103349;-66
2023/11/20 09:02:33;;;;;;;9.40;3.17;;;;;;;11.30;61.70;98378.91;5016511;28;102725;-68
2023/11/20 09:05:02;;;;;;;10.27;2.75;;;;;;;11.43;60.98;98374.63;5013665;28;102791;-68
2023/11/20 09:07:34;;;;;;;7.57;2.65;;;;;;;11.53;60.75;98368.22;5010235;28;103081;-68
2023/11/20 09:10:04;;;;;;;7.55;2.63;;;;;;;11.66;60.76;98373.72;5011711;27;102954;-66
2023/11/20 09:12:38;;;;;;;10.00;2.67;;;;;;;11.80;60.56;98373.91;5013390;28;102618;-68
2023/11/20 09:15:08;;;;;;;7.20;2.60;;;;;;;11.77;61.05;98357.34;5010904;28;103937;-68
2023/11/20 09:17:37;;;;;;;5.82;2.15;;;;;;;11.86;61.36;98357.25;4995117;28;104043;-65
2023/11/20 09:20:10;;;;;;;8.77;2.33;;;;;;;11.97;61.09;98358.63;5010998;28;103234;-69
2023/11/20 09:22:38;;;;;;;;;;;;;;;12.12;59.94;98359.44;4996961;28;102724;-66
2023/11/20 09:25:07;;;;;;;6.97;2.50;;;;;;;12.61;59.32;98360.56;5003128;28;102774;-66
2023/11/20 09:27:38;;;;;;;9.43;3.30;;;;;;;12.48;59.78;98363.09;5013209;28;103848;-68
2023/11/20 09:30:07;;;;;;;7.97;2.40;;;;;;;12.72;58.94;98362.72;5009617;28;103283;-67
2023/11/20 09:32:38;;;;;;;6.90;2.28;;;;;;;12.48;59.15;98365.75;5007968;28;102663;-68
2023/11/20 09:35:14;;;;;;;5.78;2.30;;;;;;;12.44;59.95;98355.50;5009878;28;102769;-68
2023/11/20 09:37:42;;;;;;;10.13;3.05;;;;;;;12.66;59.50;98368.78;5017652;28;103291;-66
2023/11/20 09:40:11;;;;;;;5.60;2.10;;;;;;;12.99;58.95;98360.28;5003593;28;103232;-69
2023/11/20 09:42:48;;;;;;;4.60;2.20;;;;;;;12.79;58.84;98354.00;5012101;28;103089;-69
2023/11/20 09:45:26;;;;;;;11.45;2.97;;;;;;;12.59;58.03;98359.94;5013724;28;102698;-66
2023/11/20 09:47:56;;;;;;;6.18;2.58;;;;;;;12.55;58.41;98356.84;5013947;28;103330;-68
2023/11/20 09:50:28;;;;;;;5.38;2.20;;;;;;;12.65;59.29;98361.81;5006728;28;103231;-66
2023/11/20 09:52:57;;;;;;;11.02;2.35;;;;;;;12.55;59.16;98367.47;5016614;28;102786;-66
2023/11/20 09:55:27;;;;;;;6.38;1.98;;;;;;;12.61;59.66;98373.84;5011112;28;103988;-66
2023/11/20 09:57:56;;;;;;;5.60;2.20;;;;;;;12.52;60.27;98372.31;5007605;28;103351;-66
2023/11/20 10:00:27;;;;;;;6.57;2.50;;;;;;;12.18;61.34;98371.13;5008008;28;103359;-65
2023/11/20 10:02:55;;;;;;;7.40;2.45;;;;;;;12.03;62.02;98363.22;5009862;28;102588;-65
2023/11/20 10:05:29;;;;;;;6.90;2.30;;;;;;;12.00;61.38;98364.41;5005075;28;102605;-65
2023/11/20 10:08:02;;;;;;;6.93;2.00;;;;;;;11.63;62.48;98355.50;4993639;28;103109;-65
2023/11/20 10:10:33;;;;;;;6.72;2.28;;;;;;;11.59;62.54;98363.03;5006412;28;102751;-65
2023/11/20 10:13:04;;;;;;;4.07;1.75;;;;;;;11.84;62.07;98351.28;4986534;28;102743;-66
2023/11/20 10:15:33;;;;;;;3.03;1.52;;;;;;;11.99;61.98;98341.53;5011056;28;102784;-68
2023/11/20 10:18:11;;;;;;;9.15;2.28;;;;;;;11.95;61.58;98345.56;5012214;28;103406;-65
2023/11/20 10:20:48;;;;;;;4.40;1.90;;;;;;;11.96;62.28;98347.22;5004559;28;103239;-65
2023/11/20 10:23:17;;;;;;;8.70;2.70;;;;;;;12.05;61.43;98335.47;5003749;28;102649;-65
2023/11/20 10:25:47;;;;;;;4.43;1.98;;;;;;;11.90;62.48;98342.59;4992851;28;102727;-66
2023/11/20 10:28:15;;;;;;;6.05;2.08;;;;;;;12.09;62.44;98335.91;5010677;28;103259;-65
2023/11/20 10:30:45;;;;;;;5.63;2.35;;;;;;;12.14;61.79;98322.09;5010801;28;103238;-66
2023/11/20 10:33:17;;;;;;;7.47;1.90;;;;;;;12.59;61.08;98326.22;5008908;28;102832;-66
2023/11/20 10:35:48;;;;;;;5.93;2.22;;;;;;;12.47;59.73;98329.56;4986414;28;104441;-68
2023/11/20 10:38:18;;;;;;;6.30;2.15;;;;;;;12.25;59.68;98318.94;5012716;28;103384;-66
2023/11/20 10:40:48;;;;;;;6.80;2.42;;;;;;;12.05;59.11;98313.41;5009377;28;103266;-65
2023/11/20 10:43:17;;;;;;;14.10;2.45;;;;;;;12.02;59.31;98319.09;5014077;27;102643;-65
2023/11/20 10:45:45;;;;;;;5.32;2.28;;;;;;;12.05;60.06;98324.03;5012180;28;102671;-68
2023/11/20 10:48:13;;;;;;;6.55;2.10;;;;;;;11.82;61.87;98324.94;5004791;28;103282;-67
2023/11/20 10:50:44;;;;;;;6.20;2.33;;;;;;;11.66;63.40;98325.13;4991134;28;102996;-65
2023/11/20 10:53:22;;;;;;;7.45;2.38;;;;;;;11.67;64.70;98316.19;5009085;28;103147;-66
2023/11/20 10:55:56;;;;;;;5.15;2.22;;;;;;;11.39;66.03;98315.00;5007834;28;103156;-67
2023/11/20 10:58:27;;;;;;;8.10;3.10;;;;;;;11.66;65.80;98325.97;5005317;28;104056;-65
2023/11/20 11:00:58;;;;;;;9.45;2.53;;;;;;;11.54;66.43;98319.47;5012441;28;103324;-64
2023/11/20 11:03:30;;;;;;;7.45;2.17;;;;;;;11.84;65.60;98307.00;5003968;28;102979;-66
2023/11/20 11:06:09;;;;;;;7.25;2.30;;;;;;;12.23;64.61;98302.38;5005006;28;103322;-70
2023/11/20 11:08:43;;;;;;;8.93;2.20;;;;;;;12.33;64.42;98300.22;5002956;27;104168;-69
2023/11/20 11:11:14;;;;;;;6.53;2.55;;;;;;;12.55;63.89;98292.25;4988067;28;103399;-65
2023/11/20 11:13:44;;;;;;;6.18;2.33;;;;;;;13.14;62.01;98295.56;5008718;27;102808;-69
2023/11/20 11:16:22;;;;;;;6.30;2.92;;;;;;;12.93;60.86;98290.13;5006200;28;102697;-69
2023/11/20 11:19:01;;;;;;;6.25;1.98;;;;;;;12.85;61.56;98284.13;5005148;28;103393;-66
2023/11/20 11:21:40;;;;;;;5.07;1.95;;;;;;;12.73;61.84;98278.50;5005899;28;103898;-70
2023/11/20 11:24:13;;;;;;;4.32;1.77;;;;;;;12.59;61.85;98288.22;5009701;28;103016;-71
2023/11/20 11:26:52;;;;;;;4.33;1.53;;;;;;;12.59;62.01;98288.22;5016083;28;103871;-67
2023/11/20 11:29:24;;;;;;;5.45;1.80;;;;;;;12.51;62.18;98275.88;5005832;28;103332;-67
2023/11/20 11:32:24;;;;;;;5.82;2.15;;;;;;;12.28;61.89;98279.53;5007223;28;103299;-68
2023/11/20 11:35:13;;;;;;;5.88;2.30;;;;;;;12.49;61.42;98285.06;5006730;28;102602;-67
2023/11/20 11:37:50;;;;;;;3.17;1.75;;;;;;;12.20;61.13;98289.47;5000302;28;103884;-66